Time;durP1;ratioP1;P1;durP2;ratioP2;P2;SDS_P1;SDS_P2;PMS_P1;PMS_P2;Temp;Humidity;BMP_temperature;BMP_pressure;BME280_temperature;BME280_humidity;BME280_pressure;Samples;Min_cycle;Max_cycle;Signal;HPM_P1;HPM_P2
2022/07/01 00:01:43;;;;;;;0.60;0.60;;;23.30;72.90;;;;;;5070900;28;43960;-70
2022/07/01 00:04:11;;;;;;;0.77;0.77;;;23.50;72.50;;;;;;5070471;28;43616;-71
2022/07/01 00:06:39;;;;;;;0.70;0.70;;;23.60;72.00;;;;;;5070496;28;43894;-71
2022/07/01 00:09:08;;;;;;;0.80;0.80;;;23.80;71.70;;;;;;5070505;28;43910;-70
2022/07/01 00:11:36;;;;;;;0.73;0.73;;;23.90;71.20;;;;;;5070835;28;44007;-70
2022/07/01 00:14:06;;;;;;;0.57;0.57;;;24.00;70.70;;;;;;5052278;28;46831;-70
2022/07/01 00:16:34;;;;;;;0.60;0.60;;;24.10;70.20;;;;;;5071088;28;43940;-70
2022/07/01 00:19:02;;;;;;;0.63;0.63;;;24.30;70.00;;;;;;5070997;28;43331;-70
2022/07/01 00:21:30;;;;;;;0.63;0.63;;;24.40;69.60;;;;;;5071696;28;43385;-70
2022/07/01 00:23:58;;;;;;;0.80;0.80;;;24.40;69.30;;;;;;5070667;28;43695;-70
2022/07/01 00:26:26;;;;;;;0.60;0.60;;;24.50;69.00;;;;;;5070304;28;43955;-70
2022/07/01 00:28:54;;;;;;;0.77;0.77;;;24.40;69.00;;;;;;5052336;28;44015;-69
2022/07/01 00:31:24;;;;;;;0.70;0.70;;;24.30;69.50;;;;;;5070353;28;43358;-70
2022/07/01 00:33:52;;;;;;;0.70;0.70;;;24.10;69.80;;;;;;5063513;28;43635;-70
2022/07/01 00:36:20;;;;;;;0.70;0.70;;;23.90;70.20;;;;;;5058519;28;45938;-70
2022/07/01 00:38:50;;;;;;;0.80;0.80;;;23.80;70.90;;;;;;5042514;28;43543;-70
2022/07/01 00:41:18;;;;;;;0.80;0.80;;;23.60;71.20;;;;;;5051760;28;43513;-70
2022/07/01 00:43:46;;;;;;;0.60;0.60;;;23.50;71.60;;;;;;5069585;28;43976;-69
2022/07/01 00:46:25;;;;;;;0.80;0.80;;;23.40;71.70;;;;;;5051017;28;44583;-70
2022/07/01 00:48:54;;;;;;;0.80;0.80;;;23.40;72.20;;;;;;5051078;28;44047;-71
2022/07/01 00:51:22;;;;;;;0.73;0.73;;;23.30;72.30;;;;;;5037983;28;43722;-71
2022/07/01 00:53:51;;;;;;;0.57;0.57;;;23.30;72.50;;;;;;5069225;28;43971;-70
2022/07/01 00:56:19;;;;;;;0.60;0.60;;;23.20;72.50;;;;;;5069068;28;43945;-70
2022/07/01 00:58:47;;;;;;;0.50;0.50;;;23.20;72.70;;;;;;5069124;28;43335;-71
2022/07/01 01:01:15;;;;;;;0.60;0.60;;;23.20;72.80;;;;;;5069450;28;44039;-71
2022/07/01 01:03:44;;;;;;;0.50;0.50;;;23.10;72.80;;;;;;5068987;28;43616;-71
2022/07/01 01:06:12;;;;;;;0.70;0.70;;;23.10;72.90;;;;;;5068465;28;43468;-70
2022/07/01 01:08:40;;;;;;;0.70;0.70;;;23.10;73.00;;;;;;5069247;28;43975;-69
2022/07/01 01:11:08;;;;;;;0.67;0.67;;;23.10;73.30;;;;;;5069685;28;44075;-70
2022/07/01 01:13:36;;;;;;;1.23;0.60;;;23.10;74.50;;;;;;5069215;28;44024;-70
2022/07/01 01:16:05;;;;;;;0.60;0.60;;;23.10;73.50;;;;;;5069890;28;43944;-69
2022/07/01 01:18:33;;;;;;;0.60;0.60;;;23.20;73.10;;;;;;5069027;28;43916;-70
2022/07/01 01:21:02;;;;;;;0.70;0.70;;;23.40;72.80;;;;;;5070235;28;43874;-71
2022/07/01 01:23:30;;;;;;;0.60;0.60;;;23.50;72.20;;;;;;5069800;28;44977;-71
2022/07/01 01:25:58;;;;;;;0.70;0.70;;;23.70;71.90;;;;;;5069439;28;43979;-70
2022/07/01 01:28:26;;;;;;;0.63;0.63;;;23.80;71.30;;;;;;5050869;28;43830;-70
2022/07/01 01:30:54;;;;;;;0.80;0.80;;;23.90;70.90;;;;;;5069306;28;43818;-71
2022/07/01 01:33:23;;;;;;;0.50;0.50;;;24.10;70.50;;;;;;5050490;28;45703;-70
2022/07/01 01:35:50;;;;;;;0.57;0.57;;;24.20;70.20;;;;;;5068898;28;43389;-70
2022/07/01 01:38:20;;;;;;;0.50;0.50;;;24.30;69.80;;;;;;5037355;28;44052;-69
2022/07/01 01:40:49;;;;;;;0.70;0.70;;;24.30;69.70;;;;;;5069462;28;43992;-70
2022/07/01 01:43:17;;;;;;;0.50;0.50;;;24.10;69.60;;;;;;5068432;28;43969;-70
2022/07/01 01:45:45;;;;;;;0.70;0.70;;;24.00;69.90;;;;;;5068293;28;44294;-71
2022/07/01 01:48:13;;;;;;;0.50;0.50;;;23.90;70.20;;;;;;5068115;28;44047;-71
2022/07/01 01:50:41;;;;;;;0.67;0.67;;;23.70;71.00;;;;;;5068859;28;43902;-71
2022/07/01 01:53:11;;;;;;;0.50;0.50;;;23.60;71.40;;;;;;5067824;28;43901;-70
2022/07/01 01:55:40;;;;;;;0.63;0.63;;;23.40;71.70;;;;;;5067821;28;44000;-71
2022/07/01 01:58:08;;;;;;;0.60;0.60;;;23.30;71.90;;;;;;5049848;28;43778;-69
2022/07/01 02:00:37;;;;;;;0.70;0.70;;;23.30;72.20;;;;;;5068003;28;43984;-71
2022/07/01 02:03:05;;;;;;;0.70;0.70;;;23.20;72.40;;;;;;5067201;28;43973;-70
2022/07/01 02:05:35;;;;;;;0.67;0.67;;;23.20;72.60;;;;;;5067704;28;43769;-70
2022/07/01 02:08:04;;;;;;;0.70;0.70;;;23.10;72.70;;;;;;5067767;28;43973;-70
2022/07/01 02:10:32;;;;;;;0.50;0.50;;;23.10;72.90;;;;;;5068143;28;43897;-70
2022/07/01 02:13:01;;;;;;;0.70;0.70;;;23.10;72.90;;;;;;5067476;28;44811;-71
2022/07/01 02:15:30;;;;;;;0.50;0.50;;;23.10;73.10;;;;;;5067178;28;43447;-70
2022/07/01 02:17:58;;;;;;;0.70;0.70;;;23.00;73.60;;;;;;5068047;28;43932;-70
2022/07/01 02:20:26;;;;;;;0.60;0.60;;;23.10;73.70;;;;;;5068512;28;43827;-70
2022/07/01 02:22:54;;;;;;;0.70;0.70;;;23.20;73.50;;;;;;5067764;28;43948;-69
2022/07/01 02:25:22;;;;;;;0.70;0.70;;;23.20;73.10;;;;;;5067557;28;44141;-69
2022/07/01 02:27:50;;;;;;;0.80;0.80;;;23.30;72.70;;;;;;5067886;28;43753;-70
2022/07/01 02:30:19;;;;;;;0.60;0.60;;;23.50;72.30;;;;;;5068405;28;43539;-70
2022/07/01 02:32:47;;;;;;;0.70;0.70;;;23.60;71.90;;;;;;5049741;28;45085;-70
2022/07/01 02:35:15;;;;;;;0.70;0.70;;;23.70;71.30;;;;;;5067718;28;43946;-70
2022/07/01 02:37:43;;;;;;;0.50;0.50;;;23.90;70.90;;;;;;5068374;28;43968;-70
2022/07/01 02:40:12;;;;;;;0.60;0.60;;;24.00;70.60;;;;;;5068151;28;43892;-71
2022/07/01 02:42:40;;;;;;;0.60;0.60;;;24.10;70.20;;;;;;5067943;28;43990;-71
2022/07/01 02:45:09;;;;;;;0.70;0.70;;;24.20;69.90;;;;;;5067990;28;44003;-70
2022/07/01 02:47:39;;;;;;;0.70;0.70;;;24.30;69.60;;;;;;5067810;28;43832;-70
2022/07/01 02:50:08;;;;;;;0.70;0.70;;;24.20;69.40;;;;;;5068325;28;43943;-70
2022/07/01 02:52:36;;;;;;;0.60;0.60;;;24.10;69.60;;;;;;5068046;28;43977;-70
2022/07/01 02:55:06;;;;;;;0.63;0.63;;;24.00;69.70;;;;;;5067581;28;43957;-70
2022/07/01 02:57:33;;;;;;;0.67;0.67;;;23.80;70.30;;;;;;5067423;28;44054;-69
2022/07/01 03:00:02;;;;;;;0.57;0.57;;;23.60;70.80;;;;;;5048327;28;43957;-70
2022/07/01 03:02:29;;;;;;;0.70;0.70;;;23.50;71.30;;;;;;5066217;28;44043;-70
2022/07/01 03:04:59;;;;;;;0.60;0.60;;;23.40;71.70;;;;;;5066131;28;43905;-69
2022/07/01 03:07:27;;;;;;;0.70;0.70;;;23.30;71.80;;;;;;5066049;28;43970;-69
2022/07/01 03:09:55;;;;;;;0.60;0.60;;;23.20;72.00;;;;;;5048060;28;44210;-70
2022/07/01 03:12:27;;;;;;;0.87;0.87;;;23.20;72.20;;;;;;5065758;28;44025;-70
2022/07/01 03:14:56;;;;;;;0.60;0.60;;;23.20;72.40;;;;;;5066257;28;43778;-70
2022/07/01 03:17:24;;;;;;;0.70;0.70;;;23.10;72.50;;;;;;5066063;28;43920;-70
2022/07/01 03:19:52;;;;;;;1.40;1.30;;;23.10;72.60;;;;;;5064772;28;43872;-70
2022/07/01 03:22:23;;;;;;;1.50;1.00;;;23.10;72.80;;;;;;5066013;28;43945;-71
2022/07/01 03:24:51;;;;;;;0.80;0.80;;;23.00;72.70;;;;;;5059645;28;44086;-69
2022/07/01 03:27:19;;;;;;;0.70;0.70;;;23.00;72.90;;;;;;5060278;28;43955;-71
2022/07/01 03:29:47;;;;;;;0.67;0.67;;;23.00;73.30;;;;;;5063343;28;44008;-71
2022/07/01 03:32:16;;;;;;;0.70;0.70;;;23.00;73.50;;;;;;5069544;28;43861;-70
2022/07/01 03:34:44;;;;;;;0.70;0.70;;;23.10;73.20;;;;;;5062874;28;43865;-70
2022/07/01 03:37:13;;;;;;;0.70;0.70;;;23.30;72.90;;;;;;5069332;28;44020;-71
2022/07/01 03:39:42;;;;;;;0.70;0.70;;;23.40;72.40;;;;;;5069421;28;43922;-70
2022/07/01 03:42:10;;;;;;;0.63;0.63;;;23.50;71.80;;;;;;5068928;28;45115;-70
2022/07/01 03:44:38;;;;;;;0.60;0.60;;;23.70;71.50;;;;;;5069016;28;44118;-71
2022/07/01 03:47:07;;;;;;;0.67;0.67;;;23.80;71.00;;;;;;5069284;28;43884;-70
2022/07/01 03:49:35;;;;;;;0.60;0.60;;;23.90;70.50;;;;;;5069533;28;43968;-70
2022/07/01 03:52:04;;;;;;;0.60;0.60;;;24.00;70.20;;;;;;5068973;28;43999;-70
2022/07/01 03:54:32;;;;;;;0.67;0.67;;;24.10;69.70;;;;;;5068497;28;43977;-69
2022/07/01 03:57:02;;;;;;;0.63;0.63;;;24.10;69.50;;;;;;5069347;28;44036;-70
2022/07/01 03:59:31;;;;;;;0.60;0.60;;;24.10;70.50;;;;;;5037776;28;43929;-69
2022/07/01 04:02:00;;;;;;;0.80;0.80;;;24.00;70.10;;;;;;5068768;28;43999;-70
2022/07/01 04:04:28;;;;;;;1.20;0.67;;;23.80;70.40;;;;;;5068893;28;43944;-71
2022/07/01 04:06:57;;;;;;;0.60;0.60;;;23.60;70.80;;;;;;5068532;28;43948;-70
2022/07/01 04:09:25;;;;;;;0.50;0.50;;;23.50;71.20;;;;;;5069418;28;43952;-70
2022/07/01 04:11:53;;;;;;;0.50;0.50;;;23.40;71.70;;;;;;5050218;28;45490;-71
2022/07/01 04:14:24;;;;;;;0.67;0.67;;;23.30;71.90;;;;;;5068632;28;43992;-70
2022/07/01 04:16:52;;;;;;;0.90;0.90;;;23.20;72.10;;;;;;5068914;28;43886;-71
2022/07/01 04:19:20;;;;;;;0.70;0.70;;;23.20;72.40;;;;;;5069169;28;43994;-70
2022/07/01 04:24:33;;;;;;;0.67;0.67;;;23.10;72.70;;;;;;5068724;28;44031;-69
2022/07/01 04:27:01;;;;;;;0.70;0.70;;;23.00;72.70;;;;;;5069105;28;44402;-71
2022/07/01 04:29:31;;;;;;;0.60;0.60;;;23.00;72.80;;;;;;5069031;28;44081;-70
2022/07/01 04:31:59;;;;;;;0.80;0.80;;;23.00;73.00;;;;;;5068360;28;44836;-72
2022/07/01 04:34:27;;;;;;;0.60;0.60;;;23.00;73.60;;;;;;5068240;28;43891;-70
2022/07/01 04:36:55;;;;;;;1.17;0.60;;;23.00;73.70;;;;;;5068567;28;44006;-70
2022/07/01 04:39:23;;;;;;;0.63;0.63;;;23.00;73.60;;;;;;5049899;28;43958;-70
2022/07/01 04:42:00;;;;;;;0.60;0.60;;;23.10;73.30;;;;;;5068163;28;43964;-69
2022/07/01 04:44:28;;;;;;;0.60;0.60;;;23.20;72.90;;;;;;5068378;28;43933;-69
2022/07/01 04:46:58;;;;;;;0.70;0.70;;;23.40;72.50;;;;;;5068432;28;43913;-69
2022/07/01 04:49:25;;;;;;;0.70;0.70;;;23.50;71.80;;;;;;5068853;28;43444;-70
2022/07/01 04:51:53;;;;;;;0.70;0.70;;;23.60;70.50;;;;;;5067923;28;45503;-70
2022/07/01 04:54:22;;;;;;;0.83;0.83;;;23.70;69.60;;;;;;5049585;28;44119;-70
2022/07/01 04:56:51;;;;;;;0.80;0.80;;;23.90;69.40;;;;;;5068214;28;43885;-71
2022/07/01 04:59:19;;;;;;;0.90;0.90;;;24.00;70.20;;;;;;5050175;28;44196;-70
2022/07/01 05:01:48;;;;;;;0.50;0.50;;;24.10;69.40;;;;;;5067677;28;43938;-71
2022/07/01 05:04:18;;;;;;;0.83;0.83;;;24.10;69.20;;;;;;5061498;28;43976;-71
2022/07/01 05:06:46;;;;;;;0.60;0.60;;;24.10;69.00;;;;;;5061471;28;43438;-70
2022/07/01 05:09:14;;;;;;;0.70;0.70;;;24.00;69.40;;;;;;5043601;28;43997;-70
2022/07/01 05:11:42;;;;;;;0.57;0.57;;;23.90;69.80;;;;;;5061474;28;43775;-69
2022/07/01 05:14:10;;;;;;;0.53;0.53;;;23.70;70.20;;;;;;5067837;28;43390;-70
2022/07/01 05:16:38;;;;;;;0.60;0.60;;;23.60;70.60;;;;;;5061589;28;43920;-69
2022/07/01 05:22:01;;;;;;;0.70;0.70;;;23.30;71.40;;;;;;5063471;28;43873;-70
2022/07/01 05:24:31;;;;;;;0.70;0.70;;;23.20;71.70;;;;;;5067711;28;43908;-70
2022/07/01 05:26:59;;;;;;;0.70;0.70;;;23.10;72.00;;;;;;5049372;28;43961;-70
2022/07/01 05:29:27;;;;;;;0.50;0.50;;;23.10;72.30;;;;;;5068027;28;43899;-70
2022/07/01 05:31:56;;;;;;;0.60;0.60;;;23.00;72.40;;;;;;5067366;28;43975;-70
2022/07/01 05:34:24;;;;;;;0.60;0.60;;;23.00;72.60;;;;;;5049115;28;45105;-71
2022/07/01 05:36:53;;;;;;;0.63;0.63;;;23.00;72.70;;;;;;5067707;28;43500;-70
2022/07/01 05:39:21;;;;;;;0.80;0.80;;;22.90;72.70;;;;;;5067710;28;44172;-70
2022/07/01 05:41:49;;;;;;;0.80;0.80;;;22.90;72.80;;;;;;5067409;28;44869;-70
2022/07/01 05:44:17;;;;;;;0.70;0.70;;;22.90;72.80;;;;;;5067446;28;43921;-72
2022/07/01 05:46:45;;;;;;;0.80;0.80;;;22.90;72.80;;;;;;5067555;28;43374;-70
2022/07/01 05:49:13;;;;;;;0.70;0.70;;;22.90;72.80;;;;;;5067426;28;44027;-71
2022/07/01 05:51:45;;;;;;;0.87;0.87;;;22.80;73.80;;;;;;5047885;28;44966;-71
2022/07/01 05:54:15;;;;;;;0.80;0.80;;;22.90;73.70;;;;;;5067249;28;43434;-71
2022/07/01 05:56:43;;;;;;;0.73;0.73;;;22.90;73.60;;;;;;5067295;28;43913;-70
2022/07/01 05:59:11;;;;;;;0.80;0.80;;;23.00;73.20;;;;;;5067609;28;43366;-70
2022/07/01 06:01:39;;;;;;;0.70;0.70;;;23.10;72.60;;;;;;5047712;28;43989;-70
2022/07/01 06:04:07;;;;;;;0.60;0.60;;;23.30;72.20;;;;;;5067246;28;43369;-69
2022/07/01 06:06:35;;;;;;;0.77;0.77;;;23.50;71.60;;;;;;5067494;28;44079;-70
2022/07/01 06:09:03;;;;;;;0.80;0.80;;;23.60;71.10;;;;;;5067738;28;44020;-70
2022/07/01 06:11:33;;;;;;;0.70;0.70;;;23.70;70.60;;;;;;5066986;28;44055;-70
2022/07/01 06:14:01;;;;;;;0.80;0.80;;;23.80;70.20;;;;;;5067014;28;43984;-70
2022/07/01 06:16:29;;;;;;;0.60;0.60;;;23.90;69.80;;;;;;5067284;28;44030;-70
2022/07/01 06:18:59;;;;;;;0.60;0.60;;;24.00;69.60;;;;;;5067380;28;43874;-71
2022/07/01 06:21:27;;;;;;;0.97;0.60;;;24.00;69.30;;;;;;5048451;28;46911;-71
2022/07/01 06:23:55;;;;;;;0.67;0.67;;;23.90;69.50;;;;;;5066781;28;43899;-70
2022/07/01 06:26:23;;;;;;;0.70;0.70;;;23.80;69.80;;;;;;5066833;28;43873;-70
2022/07/01 06:28:52;;;;;;;0.70;0.70;;;23.70;70.30;;;;;;5067279;28;43393;-70
2022/07/01 06:31:20;;;;;;;0.67;0.67;;;23.50;70.60;;;;;;5066784;28;44970;-69
2022/07/01 06:33:48;;;;;;;0.67;0.67;;;23.30;71.00;;;;;;5066595;28;43979;-70
2022/07/01 06:36:16;;;;;;;0.50;0.50;;;23.30;71.50;;;;;;5066680;28;43956;-70
2022/07/01 06:38:44;;;;;;;0.60;0.60;;;23.20;71.60;;;;;;5067285;28;43855;-70
2022/07/01 06:41:30;;;;;;;0.60;0.60;;;23.10;71.90;;;;;;5066105;28;43980;-70
2022/07/01 06:44:00;;;;;;;0.70;0.70;;;23.00;72.00;;;;;;5066497;28;43897;-70
2022/07/01 06:46:29;;;;;;;0.80;0.80;;;23.00;72.30;;;;;;5066737;28;43356;-72
2022/07/01 06:48:58;;;;;;;0.60;0.60;;;22.90;72.20;;;;;;5067107;28;43983;-70
2022/07/01 06:51:26;;;;;;;0.60;0.60;;;22.90;72.40;;;;;;5048360;28;45735;-70
2022/07/01 06:53:54;;;;;;;0.57;0.57;;;22.90;72.50;;;;;;5066138;28;44339;-71
2022/07/01 06:56:22;;;;;;;0.60;0.60;;;22.90;72.50;;;;;;5066259;28;44018;-71
2022/07/01 06:58:50;;;;;;;0.80;0.80;;;22.90;72.60;;;;;;5066966;28;43948;-70
2022/07/01 07:01:19;;;;;;;0.73;0.70;;;22.80;73.00;;;;;;5066959;28;43916;-70
2022/07/01 07:03:47;;;;;;;0.70;0.70;;;22.80;73.50;;;;;;5069910;28;43989;-72
2022/07/01 07:06:16;;;;;;;0.67;0.67;;;22.90;73.20;;;;;;5051932;28;44124;-70
2022/07/01 07:08:44;;;;;;;0.70;0.70;;;22.90;72.90;;;;;;5070452;28;43960;-69
2022/07/01 07:11:14;;;;;;;0.73;0.73;;;23.10;72.50;;;;;;5051489;28;46143;-71
2022/07/01 07:13:42;;;;;;;0.60;0.60;;;23.20;72.00;;;;;;5069816;28;43975;-69
2022/07/01 07:16:10;;;;;;;0.70;0.70;;;23.30;71.60;;;;;;5069923;28;44451;-70
2022/07/01 07:18:40;;;;;;;0.80;0.80;;;23.40;71.00;;;;;;5070113;28;43912;-70
2022/07/01 07:21:08;;;;;;;0.70;0.70;;;23.60;71.40;;;;;;5069559;28;43888;-70
2022/07/01 07:23:37;;;;;;;0.67;0.67;;;23.70;70.20;;;;;;5069537;28;43936;-70
2022/07/01 07:26:05;;;;;;;0.70;0.70;;;23.80;69.80;;;;;;5070075;28;43877;-70
2022/07/01 07:28:33;;;;;;;0.70;0.70;;;23.90;69.50;;;;;;5070297;28;43523;-70
2022/07/01 07:31:01;;;;;;;0.90;0.90;;;24.00;69.30;;;;;;5051479;28;46605;-70
2022/07/01 07:33:29;;;;;;;0.70;0.70;;;24.00;69.00;;;;;;5069465;28;43885;-69
2022/07/01 07:35:58;;;;;;;0.97;0.97;;;24.00;69.10;;;;;;5069443;28;43975;-69
2022/07/01 07:38:26;;;;;;;0.83;0.83;;;23.90;68.10;;;;;;5069976;28;43951;-70
2022/07/01 07:40:54;;;;;;;0.93;0.80;;;23.70;68.30;;;;;;5068996;28;43871;-70
2022/07/01 07:43:22;;;;;;;0.90;0.90;;;23.50;70.00;;;;;;5069103;28;43917;-70
2022/07/01 07:45:50;;;;;;;0.77;0.77;;;23.40;69.60;;;;;;5069583;28;43954;-70
2022/07/01 07:48:18;;;;;;;0.90;0.90;;;23.30;70.50;;;;;;5069785;28;43416;-70
2022/07/01 07:50:47;;;;;;;0.73;0.73;;;23.20;70.00;;;;;;5069197;28;43769;-71
2022/07/01 07:53:16;;;;;;;0.80;0.80;;;23.10;70.30;;;;;;5068934;28;43971;-70
2022/07/01 07:55:44;;;;;;;0.80;0.80;;;23.00;70.20;;;;;;5069136;28;43376;-71
2022/07/01 07:58:12;;;;;;;0.70;0.70;;;23.00;70.40;;;;;;5069565;28;43970;-71
2022/07/01 08:00:40;;;;;;;0.70;0.70;;;22.90;70.40;;;;;;5069112;28;43993;-71
2022/07/01 08:03:08;;;;;;;0.90;0.90;;;22.90;70.60;;;;;;5068443;28;43465;-71
2022/07/01 08:05:36;;;;;;;0.70;0.70;;;22.80;70.60;;;;;;5069127;28;43913;-70
2022/07/01 08:08:05;;;;;;;0.80;0.80;;;22.80;70.60;;;;;;5051266;28;43937;-70
2022/07/01 08:10:34;;;;;;;0.80;0.80;;;22.80;70.70;;;;;;5069120;28;44061;-69
2022/07/01 08:13:04;;;;;;;1.67;0.90;;;22.80;70.60;;;;;;5068188;28;44146;-70
2022/07/01 08:15:32;;;;;;;0.60;0.60;;;22.80;70.60;;;;;;5069182;28;43983;-70
2022/07/01 08:18:00;;;;;;;0.80;0.80;;;22.70;70.50;;;;;;5069212;28;43932;-70
2022/07/01 08:20:28;;;;;;;0.93;0.93;;;22.80;70.60;;;;;;5068747;28;43956;-71
2022/07/01 08:22:56;;;;;;;0.73;0.73;;;22.70;70.40;;;;;;5068369;28;44013;-70
2022/07/01 08:25:24;;;;;;;1.47;0.83;;;22.70;70.40;;;;;;5068697;28;43823;-71
2022/07/01 08:27:54;;;;;;;1.00;1.00;;;22.70;70.50;;;;;;5069128;28;43972;-70
2022/07/01 08:30:22;;;;;;;0.80;0.80;;;22.70;70.80;;;;;;5068649;28;44051;-71
2022/07/01 08:32:50;;;;;;;1.07;0.90;;;22.80;69.60;;;;;;5068516;28;44007;-71
2022/07/01 08:35:18;;;;;;;0.83;0.83;;;22.90;69.00;;;;;;5068709;28;43952;-70
2022/07/01 08:37:46;;;;;;;0.87;0.87;;;23.10;68.80;;;;;;5068845;28;43461;-70
2022/07/01 08:40:14;;;;;;;1.00;1.00;;;23.20;68.30;;;;;;5068194;28;43919;-70
2022/07/01 08:42:43;;;;;;;0.80;0.80;;;23.30;67.80;;;;;;5031812;28;44670;-69
2022/07/01 08:45:12;;;;;;;0.90;0.90;;;23.40;67.20;;;;;;5066879;28;43388;-70
2022/07/01 08:47:52;;;;;;;0.90;0.90;;;23.50;67.00;;;;;;5068777;28;43888;-71
2022/07/01 08:50:20;;;;;;;0.90;0.90;;;23.60;66.70;;;;;;5061986;28;43946;-70
2022/07/01 08:52:50;;;;;;;0.90;0.90;;;23.60;66.40;;;;;;5062099;28;43890;-69
2022/07/01 08:55:19;;;;;;;0.70;0.70;;;23.60;66.10;;;;;;5068353;28;43953;-70
2022/07/01 08:57:47;;;;;;;0.83;0.83;;;23.60;66.10;;;;;;5068875;28;44020;-70
2022/07/01 09:00:17;;;;;;;0.70;0.70;;;23.40;66.70;;;;;;5068104;28;43906;-70
2022/07/01 09:02:53;;;;;;;1.03;1.03;;;23.30;67.40;;;;;;5067770;28;43949;-70
2022/07/01 09:05:21;;;;;;;0.77;0.77;;;23.20;67.90;;;;;;5068218;28;44001;-70
2022/07/01 09:07:50;;;;;;;0.70;0.70;;;23.00;68.20;;;;;;5068525;28;43876;-70
2022/07/01 09:10:19;;;;;;;0.73;0.73;;;23.00;68.40;;;;;;5067904;28;43987;-70
2022/07/01 09:12:47;;;;;;;0.97;0.97;;;22.90;68.60;;;;;;5067879;28;43916;-70
2022/07/01 09:15:25;;;;;;;0.80;0.80;;;22.80;68.70;;;;;;5067849;28;43896;-70
2022/07/01 09:17:55;;;;;;;0.80;0.80;;;22.80;68.80;;;;;;5068160;28;43966;-69
2022/07/01 09:20:27;;;;;;;0.70;0.70;;;22.70;68.80;;;;;;5068072;28;44967;-69
2022/07/01 09:23:02;;;;;;;0.90;0.90;;;22.70;68.80;;;;;;5067698;28;44068;-70
2022/07/01 09:25:31;;;;;;;0.80;0.80;;;22.70;68.80;;;;;;5067956;28;43955;-70
2022/07/01 09:28:12;;;;;;;0.60;0.60;;;22.70;68.90;;;;;;5068305;28;43924;-70
2022/07/01 09:30:42;;;;;;;1.00;1.00;;;22.70;68.90;;;;;;5067517;28;44055;-72
2022/07/01 09:33:14;;;;;;;0.77;0.77;;;22.70;68.90;;;;;;5067409;28;44008;-69
2022/07/01 09:35:43;;;;;;;0.80;0.80;;;22.60;68.90;;;;;;5067586;28;43976;-71
2022/07/01 09:38:12;;;;;;;1.07;0.90;;;22.60;69.20;;;;;;5068249;28;43851;-69
2022/07/01 09:41:00;;;;;;;0.80;0.80;;;22.70;68.80;;;;;;5067293;28;43931;-70
2022/07/01 09:43:29;;;;;;;0.77;0.77;;;22.70;68.50;;;;;;5067447;28;43785;-71
2022/07/01 09:45:59;;;;;;;1.00;1.00;;;22.80;68.00;;;;;;5067748;28;43781;-69
2022/07/01 09:48:42;;;;;;;0.70;0.70;;;22.90;67.40;;;;;;5049371;28;43968;-70
2022/07/01 09:51:11;;;;;;;1.20;1.20;;;23.10;66.90;;;;;;5060918;28;43902;-70
2022/07/01 09:53:42;;;;;;;1.60;1.00;;;23.20;66.60;;;;;;5061442;28;43817;-70
2022/07/01 09:56:10;;;;;;;0.93;0.90;;;23.40;66.20;;;;;;5067162;28;43802;-70
2022/07/01 09:58:39;;;;;;;0.87;0.87;;;23.50;65.90;;;;;;5067483;28;43909;-70
2022/07/01 10:01:09;;;;;;;0.77;0.77;;;23.50;65.70;;;;;;5048929;28;44930;-70
2022/07/01 10:03:38;;;;;;;0.83;0.83;;;23.60;65.50;;;;;;5067484;28;43358;-71
2022/07/01 10:06:15;;;;;;;0.90;0.90;;;23.70;65.30;;;;;;5048843;28;43396;-71
2022/07/01 10:08:47;;;;;;;1.13;1.03;;;23.70;65.30;;;;;;5049076;28;44009;-70
2022/07/01 10:11:44;;;;;;;1.00;1.00;;;23.70;65.30;;;;;;5048045;28;43958;-70
2022/07/01 10:14:13;;;;;;;1.00;1.00;;;23.60;65.20;;;;;;5029061;28;44728;-70
2022/07/01 10:16:43;;;;;;;0.80;0.80;;;23.40;65.70;;;;;;5067046;28;43901;-71
2022/07/01 10:19:26;;;;;;;0.97;0.97;;;23.30;66.20;;;;;;5067471;28;43774;-71
2022/07/01 10:21:56;;;;;;;0.87;0.87;;;23.20;66.50;;;;;;5067017;28;43981;-68
2022/07/01 10:24:25;;;;;;;0.90;0.90;;;23.10;66.80;;;;;;5066812;28;43443;-69
2022/07/01 10:26:53;;;;;;;0.70;0.70;;;23.00;66.90;;;;;;5067104;28;43909;-71
2022/07/01 10:29:29;;;;;;;0.93;0.93;;;22.90;67.00;;;;;;5067110;28;44050;-71
2022/07/01 10:32:02;;;;;;;1.10;1.10;;;22.90;67.10;;;;;;5066704;28;44805;-70
2022/07/01 10:34:38;;;;;;;0.90;0.90;;;22.80;67.30;;;;;;5066861;28;43854;-71
2022/07/01 10:37:08;;;;;;;0.80;0.80;;;22.80;67.40;;;;;;5071465;28;43956;-70
2022/07/01 10:39:55;;;;;;;0.90;0.90;;;22.70;67.40;;;;;;5073546;28;43417;-70
2022/07/01 10:42:28;;;;;;;0.83;0.83;;;22.70;67.50;;;;;;5073267;28;43949;-70
2022/07/01 10:45:04;;;;;;;1.00;1.00;;;22.70;67.30;;;;;;5073413;28;43963;-70
2022/07/01 10:47:34;;;;;;;1.33;1.23;;;22.70;67.40;;;;;;5073644;28;43748;-70
2022/07/01 10:50:07;;;;;;;1.20;1.20;;;22.70;67.30;;;;;;5074119;28;43369;-70
2022/07/01 10:52:35;;;;;;;1.40;1.40;;;22.70;67.30;;;;;;5055053;28;45508;-69
2022/07/01 10:55:05;;;;;;;1.30;1.30;;;22.70;67.30;;;;;;5073386;28;43472;-70
2022/07/01 10:57:35;;;;;;;2.03;1.40;;;22.60;67.40;;;;;;5073052;28;44015;-71
2022/07/01 11:00:29;;;;;;;1.50;1.50;;;22.70;67.20;;;;;;5055521;28;43936;-71
2022/07/01 11:03:22;;;;;;;1.03;1.03;;;22.70;66.60;;;;;;5072819;28;44045;-70
2022/07/01 11:05:53;;;;;;;1.33;1.33;;;22.80;66.20;;;;;;5073128;28;43391;-70
2022/07/01 11:08:21;;;;;;;1.80;1.67;;;23.00;65.30;;;;;;5054788;28;44013;-70
2022/07/01 11:10:58;;;;;;;1.30;1.30;;;23.10;64.80;;;;;;5073461;28;44010;-71
2022/07/01 11:13:27;;;;;;;1.20;1.20;;;23.30;64.20;;;;;;5073104;28;43923;-70
2022/07/01 11:15:55;;;;;;;1.50;1.40;;;23.40;64.10;;;;;;5054560;28;45087;-69
2022/07/01 11:18:25;;;;;;;1.10;1.10;;;23.40;63.80;;;;;;5072901;28;43464;-70
2022/07/01 11:20:53;;;;;;;1.03;1.03;;;23.50;63.30;;;;;;5073259;28;44258;-70
2022/07/01 11:23:22;;;;;;;1.07;1.07;;;23.60;63.30;;;;;;5054438;28;45500;-70
2022/07/01 11:25:50;;;;;;;1.27;1.27;;;23.60;63.20;;;;;;5072861;28;43961;-70
2022/07/01 11:28:18;;;;;;;1.30;1.30;;;23.50;63.00;;;;;;5072818;28;43821;-71
2022/07/01 11:30:46;;;;;;;1.10;1.10;;;23.40;63.70;;;;;;5073279;28;44095;-71
2022/07/01 11:33:14;;;;;;;1.10;1.10;;;23.30;64.30;;;;;;5072766;28;44136;-71
2022/07/01 11:41:19;;;;;;;1.13;1.13;;;23.00;65.40;;;;;;5073115;28;43965;-70
2022/07/01 11:43:47;;;;;;;1.03;1.03;;;22.80;65.40;;;;;;5066313;28;43925;-70
2022/07/01 11:46:15;;;;;;;1.20;1.20;;;22.80;65.60;;;;;;5072509;28;43940;-70
2022/07/01 11:48:44;;;;;;;1.10;1.10;;;22.80;65.80;;;;;;5068616;28;44003;-70
2022/07/01 11:51:14;;;;;;;1.10;1.10;;;22.70;65.90;;;;;;5069674;28;44058;-69
2022/07/01 11:53:42;;;;;;;1.20;1.10;;;22.70;65.90;;;;;;5069218;28;44055;-69
2022/07/01 11:56:11;;;;;;;1.70;1.10;;;22.70;66.00;;;;;;5069209;28;44192;-69
2022/07/01 11:58:46;;;;;;;1.10;1.10;;;22.70;66.00;;;;;;5050831;28;43431;-70
2022/07/01 12:01:28;;;;;;;1.33;1.23;;;22.60;65.90;;;;;;5069242;28;43327;-71
2022/07/01 12:03:59;;;;;;;1.10;1.10;;;22.60;65.90;;;;;;5068946;28;43948;-69
2022/07/01 12:06:28;;;;;;;1.20;1.20;;;22.60;66.70;;;;;;5068848;28;44121;-71
2022/07/01 12:08:56;;;;;;;1.20;1.20;;;22.60;65.70;;;;;;5069256;28;43987;-69
2022/07/01 12:11:25;;;;;;;1.23;1.23;;;22.60;65.30;;;;;;5069377;28;43945;-71
2022/07/01 12:13:53;;;;;;;1.37;1.37;;;22.70;64.70;;;;;;5068950;28;43960;-71
2022/07/01 12:16:21;;;;;;;2.27;1.10;;;22.80;64.50;;;;;;5068771;28;43952;-71
2022/07/01 12:18:57;;;;;;;1.90;1.17;;;22.90;63.90;;;;;;5068800;28;43916;-70
2022/07/01 12:21:25;;;;;;;1.10;1.10;;;23.10;63.90;;;;;;5069144;28;43273;-70
2022/07/01 12:24:11;;;;;;;1.27;1.20;;;23.20;63.40;;;;;;5068708;28;44951;-70
2022/07/01 12:26:53;;;;;;;1.20;1.20;;;23.30;62.90;;;;;;5068321;28;43872;-69
2022/07/01 12:29:22;;;;;;;1.03;0.97;;;23.40;63.60;;;;;;5069000;28;44072;-70
2022/07/01 12:32:00;;;;;;;1.37;1.10;;;23.50;62.60;;;;;;5068881;28;43575;-71
2022/07/01 12:34:39;;;;;;;1.30;1.20;;;23.50;62.40;;;;;;5068606;28;44043;-70
2022/07/01 12:37:10;;;;;;;1.10;1.10;;;23.60;62.30;;;;;;5068357;28;44055;-71
2022/07/01 12:39:46;;;;;;;1.03;1.03;;;23.60;62.10;;;;;;5043492;28;43534;-71
2022/07/01 12:42:22;;;;;;;1.07;1.07;;;23.50;62.30;;;;;;5068976;28;43882;-71
2022/07/01 12:44:50;;;;;;;1.10;1.10;;;23.30;62.80;;;;;;5068171;28;43850;-70
2022/07/01 12:47:19;;;;;;;1.10;1.10;;;23.20;63.40;;;;;;5068341;28;43481;-70
2022/07/01 12:49:47;;;;;;;1.17;1.17;;;23.10;63.80;;;;;;5068551;28;43953;-71
2022/07/01 12:52:25;;;;;;;1.27;1.27;;;23.00;64.90;;;;;;5068804;28;43885;-70
2022/07/01 12:54:56;;;;;;;1.10;1.10;;;22.90;64.40;;;;;;5068243;28;43936;-70
2022/07/01 12:57:31;;;;;;;1.10;1.10;;;22.80;64.60;;;;;;5068093;28;43885;-70
2022/07/01 13:00:06;;;;;;;3.33;1.27;;;22.70;64.60;;;;;;5068066;28;43940;-70
2022/07/01 13:02:34;;;;;;;1.10;1.10;;;22.70;64.80;;;;;;5068569;28;44039;-70
2022/07/01 13:05:02;;;;;;;1.30;1.30;;;22.60;64.80;;;;;;5068277;28;43948;-71
2022/07/01 13:07:30;;;;;;;0.90;0.90;;;22.60;64.80;;;;;;5067866;28;44419;-71
2022/07/01 13:10:00;;;;;;;1.20;1.20;;;22.60;64.80;;;;;;5067999;28;43988;-70
2022/07/01 13:12:28;;;;;;;1.07;1.07;;;22.60;64.90;;;;;;5068415;28;44254;-71